Whitefish, Canada
Current Conditions -  °F | °C
As of 12:00 AM on Monday 20 Oct 2014 (Local Time) from CYSB Reporting Station
Light Rain Light Rain  
Wind Chill: 30°   Ceiling: 7500
Heat Index: 36°   Visibility: 15mi
Dew Point: 32°   Wind: 7mph
Humidity: 87%   Direction: 190°S
Pressure: 29.9"   Gusts: NA
Location:  46.37°N, 81.32°W
Report Text: CYSB 200400Z 19006KT 15SM -RA FEW026 SCT045 OVC075 02/00 A2990 RMK SC1SC3AC4 SLP142
Loading
Personal Weather Stations






























Interactive Weather Map New forecast layout! Learn more

10-Day Weather Forecast

Advertisements
Track Severe Weather on mobile